TimeMST,TemperatureF,Dew PointF,Humidity,Sea Level PressureIn,VisibilityMPH,Wind Direction,Wind SpeedMPH,Gust SpeedMPH,PrecipitationIn,Events,Conditions,WindDirDegrees,DateUTC
12:56 AM,19.9,14.0,78,30.27,-9999.0,WNW,13.8,-,N/A,,Unknown,290,2013-01-06 07:56:00
1:56 AM,21.0,14.0,74,30.27,-9999.0,WNW,12.7,-,N/A,,Unknown,300,2013-01-06 08:56:00
2:56 AM,19.9,12.9,74,30.27,-9999.0,WNW,10.4,-,N/A,,Unknown,290,2013-01-06 09:56:00
3:56 AM,19.9,12.9,74,30.24,-9999.0,WNW,5.8,-,N/A,,Unknown,290,2013-01-06 10:56:00
4:56 AM,19.0,12.0,74,30.23,-9999.0,SSW,4.6,-,N/A,,Unknown,210,2013-01-06 11:56:00
5:56 AM,12.9,9.0,84,30.23,-9999.0,SSW,10.4,-,N/A,,Unknown,200,2013-01-06 12:56:00
6:56 AM,12.0,8.1,84,30.22,-9999.0,South,15.0,-,N/A,,Unknown,180,2013-01-06 13:56:00
7:56 AM,10.9,8.1,88,30.18,-9999.0,South,18.4,-,N/A,,Unknown,170,2013-01-06 14:56:00
8:56 AM,16.0,10.9,81,30.16,-9999.0,South,16.1,-,N/A,,Unknown,190,2013-01-06 15:56:00
9:56 AM,15.1,10.9,84,30.12,-9999.0,SSE,18.4,-,N/A,,Unknown,160,2013-01-06 16:56:00
10:56 AM,19.9,14.0,78,30.07,-9999.0,SSE,17.3,-,N/A,,Unknown,160,2013-01-06 17:56:00
11:56 AM,23.0,16.0,74,30.00,-9999.0,SSE,18.4,-,N/A,,Unknown,160,2013-01-06 18:56:00
12:56 PM,25.0,18.0,75,29.97,-9999.0,SSE,9.2,-,N/A,,Unknown,160,2013-01-06 19:56:00
1:56 PM,25.0,18.0,75,29.95,-9999.0,SSE,12.7,-,N/A,,Unknown,160,2013-01-06 20:56:00
2:56 PM,24.1,18.0,77,29.94,-9999.0,South,17.3,-,N/A,,Unknown,170,2013-01-06 21:56:00
3:56 PM,21.9,16.0,78,29.94,-9999.0,SSW,6.9,-,N/A,,Unknown,200,2013-01-06 22:56:00
4:56 PM,23.0,17.1,78,29.93,-9999.0,SW,8.1,-,N/A,,Unknown,220,2013-01-06 23:56:00
5:56 PM,23.0,15.1,72,29.94,-9999.0,SSW,9.2,-,N/A,,Unknown,210,2013-01-07 00:56:00
6:56 PM,26.1,16.0,66,29.93,-9999.0,West,9.2,-,N/A,,Unknown,270,2013-01-07 01:56:00
7:56 PM,28.0,19.0,69,29.94,-9999.0,WNW,11.5,-,N/A,,Unknown,290,2013-01-07 02:56:00
8:56 PM,30.9,19.0,61,29.91,-9999.0,WNW,16.1,-,N/A,,Unknown,300,2013-01-07 03:56:00
9:56 PM,30.9,19.9,64,29.93,-9999.0,WNW,12.7,-,N/A,,Unknown,300,2013-01-07 04:56:00
10:56 PM,32.0,21.0,64,29.93,-9999.0,WNW,12.7,-,N/A,,Unknown,290,2013-01-07 05:56:00
11:56 PM,30.9,21.0,67,29.94,-9999.0,WNW,6.9,-,N/A,,Unknown,290,2013-01-07 06:56:00